sensor_id;sensor_type;location;lat;lon;timestamp;pressure;altitude;pressure_sealevel;temperature;humidity
57628;BME280;43451;49.060;10.616;2023-05-08T00:00:17;97022.91;;;14.33;100.00
57628;BME280;43451;49.060;10.616;2023-05-08T00:02:42;97027.19;;;14.34;100.00
57628;BME280;43451;49.060;10.616;2023-05-08T00:05:08;97025.28;;;14.31;100.00
57628;BME280;43451;49.060;10.616;2023-05-08T00:07:34;97017.16;;;14.24;100.00
57628;BME280;43451;49.060;10.616;2023-05-08T00:10:00;97026.91;;;14.25;100.00
57628;BME280;43451;49.060;10.616;2023-05-08T00:12:25;97023.88;;;14.16;100.00
57628;BME280;43451;49.060;10.616;2023-05-08T00:14:51;97025.88;;;14.12;100.00
57628;BME280;43451;49.060;10.616;2023-05-08T00:17:16;97022.00;;;14.09;100.00
57628;BME280;43451;49.060;10.616;2023-05-08T00:19:41;97030.25;;;14.06;100.00
57628;BME280;43451;49.060;10.616;2023-05-08T00:22:07;97022.88;;;14.03;100.00
57628;BME280;43451;49.060;10.616;2023-05-08T00:24:32;97034.41;;;14.17;100.00
57628;BME280;43451;49.060;10.616;2023-05-08T00:26:57;97027.06;;;14.11;100.00
57628;BME280;43451;49.060;10.616;2023-05-08T00:29:22;97026.91;;;13.87;100.00
57628;BME280;43451;49.060;10.616;2023-05-08T00:31:48;97030.88;;;13.79;100.00
57628;BME280;43451;49.060;10.616;2023-05-08T00:34:13;97028.97;;;13.80;100.00
57628;BME280;43451;49.060;10.616;2023-05-08T00:36:38;97035.22;;;13.73;100.00
57628;BME280;43451;49.060;10.616;2023-05-08T00:39:04;97033.34;;;13.66;100.00
57628;BME280;43451;49.060;10.616;2023-05-08T00:41:29;97034.16;;;13.63;100.00
57628;BME280;43451;49.060;10.616;2023-05-08T00:43:55;97036.59;;;13.54;100.00
57628;BME280;43451;49.060;10.616;2023-05-08T00:46:20;97038.16;;;13.52;100.00
57628;BME280;43451;49.060;10.616;2023-05-08T00:48:46;97030.75;;;13.52;100.00
57628;BME280;43451;49.060;10.616;2023-05-08T00:51:12;97041.72;;;13.45;100.00
57628;BME280;43451;49.060;10.616;2023-05-08T00:53:38;97035.16;;;13.39;100.00
57628;BME280;43451;49.060;10.616;2023-05-08T00:56:05;97040.22;;;13.37;100.00
57628;BME280;43451;49.060;10.616;2023-05-08T00:58:34;97036.00;;;13.32;100.00
57628;BME280;43451;49.060;10.616;2023-05-08T01:01:00;97035.19;;;13.32;100.00
57628;BME280;43451;49.060;10.616;2023-05-08T01:03:25;97043.03;;;13.30;100.00
57628;BME280;43451;49.060;10.616;2023-05-08T01:05:52;97040.69;;;13.28;100.00
57628;BME280;43451;49.060;10.616;2023-05-08T01:08:18;97046.09;;;13.35;100.00
57628;BME280;43451;49.060;10.616;2023-05-08T01:10:50;97049.25;;;13.30;100.00
57628;BME280;43451;49.060;10.616;2023-05-08T01:13:22;97048.47;;;13.30;100.00
57628;BME280;43451;49.060;10.616;2023-05-08T01:16:14;97037.59;;;13.19;100.00
57628;BME280;43451;49.060;10.616;2023-05-08T01:19:03;97043.16;;;13.05;100.00
57628;BME280;43451;49.060;10.616;2023-05-08T01:34:23;97049.47;;;12.94;100.00
57628;BME280;43451;49.060;10.616;2023-05-08T01:39:19;97041.78;;;12.75;100.00
57628;BME280;43451;49.060;10.616;2023-05-08T01:41:47;97048.03;;;12.72;100.00
57628;BME280;43451;49.060;10.616;2023-05-08T01:44:18;97048.00;;;12.75;100.00
57628;BME280;43451;49.060;10.616;2023-05-08T01:46:47;97056.59;;;12.70;100.00
57628;BME280;43451;49.060;10.616;2023-05-08T01:49:26;97046.47;;;12.67;100.00
57628;BME280;43451;49.060;10.616;2023-05-08T01:51:55;97051.97;;;12.60;100.00
57628;BME280;43451;49.060;10.616;2023-05-08T01:54:23;97055.09;;;12.55;100.00
57628;BME280;43451;49.060;10.616;2023-05-08T01:56:50;97053.59;;;12.43;100.00
57628;BME280;43451;49.060;10.616;2023-05-08T01:59:18;97057.09;;;12.47;100.00
57628;BME280;43451;49.060;10.616;2023-05-08T02:01:45;97062.94;;;12.42;100.00
57628;BME280;43451;49.060;10.616;2023-05-08T02:04:11;97069.16;;;12.39;100.00
57628;BME280;43451;49.060;10.616;2023-05-08T02:06:38;97064.53;;;12.29;100.00
57628;BME280;43451;49.060;10.616;2023-05-08T02:09:06;97058.28;;;12.32;100.00
57628;BME280;43451;49.060;10.616;2023-05-08T02:11:32;97057.16;;;12.26;100.00
57628;BME280;43451;49.060;10.616;2023-05-08T02:13:59;97064.56;;;12.22;100.00
57628;BME280;43451;49.060;10.616;2023-05-08T02:16:25;97064.56;;;12.18;100.00
57628;BME280;43451;49.060;10.616;2023-05-08T02:18:51;97062.22;;;12.17;100.00
57628;BME280;43451;49.060;10.616;2023-05-08T02:21:18;97059.53;;;12.10;100.00
57628;BME280;43451;49.060;10.616;2023-05-08T02:23:44;97056.41;;;12.04;100.00
57628;BME280;43451;49.060;10.616;2023-05-08T02:26:10;97063.84;;;11.93;100.00
57628;BME280;43451;49.060;10.616;2023-05-08T02:28:36;97059.94;;;11.94;100.00
57628;BME280;43451;49.060;10.616;2023-05-08T02:31:02;97068.50;;;11.99;100.00
57628;BME280;43451;49.060;10.616;2023-05-08T02:33:29;97071.63;;;11.94;100.00
57628;BME280;43451;49.060;10.616;2023-05-08T02:35:55;97074.72;;;11.89;100.00
57628;BME280;43451;49.060;10.616;2023-05-08T02:38:20;97080.19;;;11.85;100.00
57628;BME280;43451;49.060;10.616;2023-05-08T02:40:50;97071.22;;;11.81;100.00
57628;BME280;43451;49.060;10.616;2023-05-08T02:43:17;97079.41;;;11.85;100.00
57628;BME280;43451;49.060;10.616;2023-05-08T02:45:44;97078.59;;;11.81;100.00
57628;BME280;43451;49.060;10.616;2023-05-08T02:48:12;97084.81;;;11.81;100.00
57628;BME280;43451;49.060;10.616;2023-05-08T02:50:43;97084.84;;;11.74;100.00
57628;BME280;43451;49.060;10.616;2023-05-08T02:53:10;97089.09;;;11.72;100.00
57628;BME280;43451;49.060;10.616;2023-05-08T02:55:45;97089.50;;;11.67;100.00
57628;BME280;43451;49.060;10.616;2023-05-08T03:01:07;97094.94;;;11.67;100.00
57628;BME280;43451;49.060;10.616;2023-05-08T03:03:39;97087.16;;;11.61;100.00
57628;BME280;43451;49.060;10.616;2023-05-08T03:06:12;97083.69;;;11.61;100.00
57628;BME280;43451;49.060;10.616;2023-05-08T03:08:38;97090.25;;;11.60;100.00
57628;BME280;43451;49.060;10.616;2023-05-08T03:11:06;97090.25;;;11.60;100.00
57628;BME280;43451;49.060;10.616;2023-05-08T03:13:33;97080.56;;;11.52;100.00
57628;BME280;43451;49.060;10.616;2023-05-08T03:16:00;97087.94;;;11.44;100.00
57628;BME280;43451;49.060;10.616;2023-05-08T03:18:31;97077.84;;;11.48;100.00
57628;BME280;43451;49.060;10.616;2023-05-08T03:20:58;97074.72;;;11.46;100.00
57628;BME280;43451;49.060;10.616;2023-05-08T03:23:25;97088.69;;;11.45;100.00
57628;BME280;43451;49.060;10.616;2023-05-08T03:25:52;97084.03;;;11.38;100.00
57628;BME280;43451;49.060;10.616;2023-05-08T03:28:17;97089.47;;;11.27;100.00
57628;BME280;43451;49.060;10.616;2023-05-08T03:30:44;97085.56;;;11.18;100.00
57628;BME280;43451;49.060;10.616;2023-05-08T03:33:10;97085.56;;;11.18;100.00
57628;BME280;43451;49.060;10.616;2023-05-08T03:35:36;97089.47;;;11.31;100.00
57628;BME280;43451;49.060;10.616;2023-05-08T03:38:02;97090.25;;;11.28;100.00
57628;BME280;43451;49.060;10.616;2023-05-08T03:40:28;97086.75;;;11.24;100.00
57628;BME280;43451;49.060;10.616;2023-05-08T03:42:54;97098.00;;;11.26;100.00
57628;BME280;43451;49.060;10.616;2023-05-08T03:45:20;97099.94;;;11.14;100.00
57628;BME280;43451;49.060;10.616;2023-05-08T03:47:46;97092.97;;;11.13;100.00
57628;BME280;43451;49.060;10.616;2023-05-08T03:50:12;97101.88;;;11.18;100.00
57628;BME280;43451;49.060;10.616;2023-05-08T03:52:37;97091.78;;;11.14;100.00
57628;BME280;43451;49.060;10.616;2023-05-08T03:55:02;97103.44;;;11.11;100.00
57628;BME280;43451;49.060;10.616;2023-05-08T03:57:33;97107.31;;;11.10;100.00
57628;BME280;43451;49.060;10.616;2023-05-08T04:00:02;97115.47;;;11.14;100.00
57628;BME280;43451;49.060;10.616;2023-05-08T04:05:30;97114.34;;;11.36;100.00
57628;BME280;43451;49.060;10.616;2023-05-08T04:07:51;97108.50;;;11.24;100.00
57628;BME280;43451;49.060;10.616;2023-05-08T04:10:29;97110.81;;;11.14;100.00
57628;BME280;43451;49.060;10.616;2023-05-08T04:13:02;97118.19;;;11.10;100.00
57628;BME280;43451;49.060;10.616;2023-05-08T04:15:30;97121.28;;;11.02;100.00
57628;BME280;43451;49.060;10.616;2023-05-08T04:18:09;97115.09;;;11.15;100.00
57628;BME280;43451;49.060;10.616;2023-05-08T04:20:37;97126.31;;;11.03;100.00
57628;BME280;43451;49.060;10.616;2023-05-08T04:23:04;97120.09;;;10.96;100.00
57628;BME280;43451;49.060;10.616;2023-05-08T04:25:30;97123.56;;;10.92;100.00
57628;BME280;43451;49.060;10.616;2023-05-08T04:27:57;97133.69;;;10.92;100.00
57628;BME280;43451;49.060;10.616;2023-05-08T04:30:23;97134.88;;;11.02;100.00
57628;BME280;43451;49.060;10.616;2023-05-08T04:32:49;97134.50;;;11.07;100.00
57628;BME280;43451;49.060;10.616;2023-05-08T04:35:16;97133.34;;;11.04;100.00
57628;BME280;43451;49.060;10.616;2023-05-08T04:37:42;97139.53;;;11.05;100.00
57628;BME280;43451;49.060;10.616;2023-05-08T04:40:08;97134.50;;;11.07;100.00
57628;BME280;43451;49.060;10.616;2023-05-08T04:42:34;97145.75;;;11.02;100.00
57628;BME280;43451;49.060;10.616;2023-05-08T04:45:00;97140.34;;;11.16;100.00
57628;BME280;43451;49.060;10.616;2023-05-08T04:47:26;97140.72;;;11.07;100.00
57628;BME280;43451;49.060;10.616;2023-05-08T04:49:51;97145.38;;;11.10;100.00
57628;BME280;43451;49.060;10.616;2023-05-08T04:52:17;97150.00;;;10.96;100.00
57628;BME280;43451;49.060;10.616;2023-05-08T04:54:42;97155.06;;;11.01;100.00
57628;BME280;43451;49.060;10.616;2023-05-08T04:57:07;97156.19;;;10.96;100.00
57628;BME280;43451;49.060;10.616;2023-05-08T04:59:33;97158.50;;;10.94;100.00
57628;BME280;43451;49.060;10.616;2023-05-08T05:01:59;97164.38;;;11.03;100.00
57628;BME280;43451;49.060;10.616;2023-05-08T05:04:27;97164.34;;;10.96;100.00
57628;BME280;43451;49.060;10.616;2023-05-08T05:06:53;97164.34;;;10.96;100.00
57628;BME280;43451;49.060;10.616;2023-05-08T05:09:18;97159.69;;;10.93;100.00
57628;BME280;43451;49.060;10.616;2023-05-08T05:11:43;97164.00;;;11.05;100.00
57628;BME280;43451;49.060;10.616;2023-05-08T05:14:09;97163.94;;;10.94;100.00
57628;BME280;43451;49.060;10.616;2023-05-08T05:16:34;97167.06;;;10.96;100.00
57628;BME280;43451;49.060;10.616;2023-05-08T05:18:59;97164.75;;;10.91;100.00
57628;BME280;43451;49.060;10.616;2023-05-08T05:21:25;97170.19;;;10.91;100.00
57628;BME280;43451;49.060;10.616;2023-05-08T05:23:52;97164.69;;;10.84;100.00
57628;BME280;43451;49.060;10.616;2023-05-08T05:26:17;97170.94;;;10.88;100.00
57628;BME280;43451;49.060;10.616;2023-05-08T05:28:43;97179.50;;;10.97;100.00
57628;BME280;43451;49.060;10.616;2023-05-08T05:31:08;97169.00;;;10.85;100.00
57628;BME280;43451;49.060;10.616;2023-05-08T05:33:33;97170.13;;;10.84;100.00
57628;BME280;43451;49.060;10.616;2023-05-08T05:35:59;97179.47;;;10.90;100.00
57628;BME280;43451;49.060;10.616;2023-05-08T05:38:24;97176.00;;;10.93;100.00
57628;BME280;43451;49.060;10.616;2023-05-08T05:40:50;97188.81;;;10.96;100.00
57628;BME280;43451;49.060;10.616;2023-05-08T05:43:15;97180.31;;;10.98;100.00
57628;BME280;43451;49.060;10.616;2023-05-08T05:45:41;97181.88;;;11.02;100.00
57628;BME280;43451;49.060;10.616;2023-05-08T05:48:06;97183.81;;;11.02;100.00
57628;BME280;43451;49.060;10.616;2023-05-08T05:50:32;97179.13;;;10.99;100.00
57628;BME280;43451;49.060;10.616;2023-05-08T05:52:57;97175.63;;;10.98;100.00
57628;BME280;43451;49.060;10.616;2023-05-08T05:55:22;97185.75;;;10.98;100.00
57628;BME280;43451;49.060;10.616;2023-05-08T05:57:48;97185.34;;;10.99;100.00
57628;BME280;43451;49.060;10.616;2023-05-08T06:00:13;97186.91;;;11.00;100.00
57628;BME280;43451;49.060;10.616;2023-05-08T06:02:39;97183.03;;;11.05;100.00
57628;BME280;43451;49.060;10.616;2023-05-08T06:05:05;97185.78;;;11.08;100.00
57628;BME280;43451;49.060;10.616;2023-05-08T06:07:31;97188.91;;;11.10;100.00
57628;BME280;43451;49.060;10.616;2023-05-08T06:09:56;97190.03;;;11.13;100.00
57628;BME280;43451;49.060;10.616;2023-05-08T06:12:22;97190.44;;;11.11;100.00
57628;BME280;43451;49.060;10.616;2023-05-08T06:14:47;97187.38;;;11.20;100.00
57628;BME280;43451;49.060;10.616;2023-05-08T06:17:12;97183.88;;;11.23;100.00
57628;BME280;43451;49.060;10.616;2023-05-08T06:19:38;97195.19;;;11.32;100.00
57628;BME280;43451;49.060;10.616;2023-05-08T06:22:03;97185.09;;;11.33;100.00
57628;BME280;43451;49.060;10.616;2023-05-08T06:24:28;97192.84;;;11.38;100.00
57628;BME280;43451;49.060;10.616;2023-05-08T06:26:54;97195.19;;;11.43;100.00
57628;BME280;43451;49.060;10.616;2023-05-08T06:29:19;97185.88;;;11.48;100.00
57628;BME280;43451;49.060;10.616;2023-05-08T06:31:45;97196.75;;;11.48;100.00
57628;BME280;43451;49.060;10.616;2023-05-08T06:34:10;97190.53;;;11.47;100.00
57628;BME280;43451;49.060;10.616;2023-05-08T06:36:36;97189.41;;;11.48;100.00
57628;BME280;43451;49.060;10.616;2023-05-08T06:39:04;97192.13;;;11.48;100.00
57628;BME280;43451;49.060;10.616;2023-05-08T06:41:30;97194.44;;;11.46;100.00
57628;BME280;43451;49.060;10.616;2023-05-08T06:43:55;97192.13;;;11.52;100.00
57628;BME280;43451;49.060;10.616;2023-05-08T06:46:21;97184.34;;;11.54;100.00
57628;BME280;43451;49.060;10.616;2023-05-08T06:48:46;97186.69;;;11.62;100.00
57628;BME280;43451;49.060;10.616;2023-05-08T06:51:11;97184.38;;;11.72;100.00
57628;BME280;43451;49.060;10.616;2023-05-08T06:53:37;97189.44;;;11.77;100.00
57628;BME280;43451;49.060;10.616;2023-05-08T06:56:02;97190.22;;;11.81;100.00
57628;BME280;43451;49.060;10.616;2023-05-08T06:58:28;97189.03;;;11.82;100.00
57628;BME280;43451;49.060;10.616;2023-05-08T07:00:55;97196.09;;;11.90;100.00
57628;BME280;43451;49.060;10.616;2023-05-08T07:03:21;97189.84;;;11.86;100.00
57628;BME280;43451;49.060;10.616;2023-05-08T07:05:46;97196.09;;;11.90;100.00
57628;BME280;43451;49.060;10.616;2023-05-08T07:08:11;97196.09;;;11.90;100.00
57628;BME280;43451;49.060;10.616;2023-05-08T07:10:37;97198.81;;;11.94;100.00
57628;BME280;43451;49.060;10.616;2023-05-08T07:13:02;97194.53;;;11.96;100.00
57628;BME280;43451;49.060;10.616;2023-05-08T07:15:29;97186.75;;;11.98;100.00
57628;BME280;43451;49.060;10.616;2023-05-08T07:17:55;97191.81;;;12.00;100.00
57628;BME280;43451;49.060;10.616;2023-05-08T07:20:20;97190.25;;;12.02;100.00
57628;BME280;43451;49.060;10.616;2023-05-08T07:22:47;97194.13;;;12.05;100.00
57628;BME280;43451;49.060;10.616;2023-05-08T07:25:13;97199.97;;;12.07;100.00
57628;BME280;43451;49.060;10.616;2023-05-08T07:27:38;97207.38;;;12.10;100.00
57628;BME280;43451;49.060;10.616;2023-05-08T07:30:04;97203.09;;;12.16;100.00
57628;BME280;43451;49.060;10.616;2023-05-08T07:32:29;97194.16;;;12.16;100.00
57628;BME280;43451;49.060;10.616;2023-05-08T07:34:58;97203.09;;;12.20;100.00
57628;BME280;43451;49.060;10.616;2023-05-08T07:37:23;97205.41;;;12.18;100.00
57628;BME280;43451;49.060;10.616;2023-05-08T07:39:48;97204.63;;;12.35;100.00
57628;BME280;43451;49.060;10.616;2023-05-08T07:42:14;97206.19;;;12.36;100.00
57628;BME280;43451;49.060;10.616;2023-05-08T07:44:39;97204.63;;;12.35;100.00
57628;BME280;43451;49.060;10.616;2023-05-08T07:47:05;97209.31;;;12.38;100.00
57628;BME280;43451;49.060;10.616;2023-05-08T07:49:30;97199.94;;;12.43;100.00
57628;BME280;43451;49.060;10.616;2023-05-08T07:51:55;97204.25;;;12.47;100.00
57628;BME280;43451;49.060;10.616;2023-05-08T07:54:21;97201.88;;;12.57;100.00
57628;BME280;43451;49.060;10.616;2023-05-08T07:56:46;97206.94;;;12.69;100.00
57628;BME280;43451;49.060;10.616;2023-05-08T07:59:12;97208.47;;;12.73;100.00
57628;BME280;43451;49.060;10.616;2023-05-08T08:01:38;97204.97;;;12.73;100.00
57628;BME280;43451;49.060;10.616;2023-05-08T08:04:03;97210.00;;;12.85;100.00
57628;BME280;43451;49.060;10.616;2023-05-08T08:06:29;97213.06;;;12.98;100.00
57628;BME280;43451;49.060;10.616;2023-05-08T08:08:54;97209.19;;;12.95;100.00
57628;BME280;43451;49.060;10.616;2023-05-08T08:11:19;97208.38;;;13.02;100.00
57628;BME280;43451;49.060;10.616;2023-05-08T08:13:45;97215.41;;;13.07;100.00
57628;BME280;43451;49.060;10.616;2023-05-08T08:16:10;97217.31;;;13.06;100.00
57628;BME280;43451;49.060;10.616;2023-05-08T08:18:36;97211.50;;;13.04;100.00
57628;BME280;43451;49.060;10.616;2023-05-08T08:21:05;97215.81;;;12.87;100.00
57628;BME280;43451;49.060;10.616;2023-05-08T08:23:30;97219.34;;;12.88;100.00
57628;BME280;43451;49.060;10.616;2023-05-08T08:25:57;97220.13;;;12.81;100.00
57628;BME280;43451;49.060;10.616;2023-05-08T08:28:22;97220.13;;;12.88;100.00
57628;BME280;43451;49.060;10.616;2023-05-08T08:30:49;97216.25;;;12.82;100.00
57628;BME280;43451;49.060;10.616;2023-05-08T08:33:15;97220.50;;;12.87;100.00
57628;BME280;43451;49.060;10.616;2023-05-08T08:35:40;97213.44;;;13.00;100.00
57628;BME280;43451;49.060;10.616;2023-05-08T08:38:06;97212.28;;;13.05;100.00
57628;BME280;43451;49.060;10.616;2023-05-08T08:40:31;97219.34;;;12.91;100.00
57628;BME280;43451;49.060;10.616;2023-05-08T08:42:57;97213.91;;;12.88;100.00
57628;BME280;43451;49.060;10.616;2023-05-08T08:45:23;97214.66;;;12.88;100.00
57628;BME280;43451;49.060;10.616;2023-05-08T08:47:48;97220.91;;;12.85;100.00
57628;BME280;43451;49.060;10.616;2023-05-08T08:50:15;97213.91;;;12.77;100.00
57628;BME280;43451;49.060;10.616;2023-05-08T08:55:09;97213.94;;;12.66;100.00
57628;BME280;43451;49.060;10.616;2023-05-08T08:57:37;97223.28;;;12.69;100.00
57628;BME280;43451;49.060;10.616;2023-05-08T09:00:05;97221.69;;;12.71;100.00
57628;BME280;43451;49.060;10.616;2023-05-08T09:02:33;97213.53;;;12.64;100.00
57628;BME280;43451;49.060;10.616;2023-05-08T09:04:59;97216.31;;;12.53;100.00
57628;BME280;43451;49.060;10.616;2023-05-08T09:07:25;97216.66;;;12.55;100.00
57628;BME280;43451;49.060;10.616;2023-05-08T09:09:51;97219.00;;;12.64;100.00
57628;BME280;43451;49.060;10.616;2023-05-08T09:12:17;97221.69;;;12.71;100.00
57628;BME280;43451;49.060;10.616;2023-05-08T09:14:42;97225.97;;;12.83;100.00
57628;BME280;43451;49.060;10.616;2023-05-08T09:17:08;97227.16;;;12.75;100.00
57628;BME280;43451;49.060;10.616;2023-05-08T09:19:33;97230.25;;;12.84;100.00
57628;BME280;43451;49.060;10.616;2023-05-08T09:21:59;97231.41;;;12.83;100.00
57628;BME280;43451;49.060;10.616;2023-05-08T09:24:25;97228.66;;;12.90;100.00
57628;BME280;43451;49.060;10.616;2023-05-08T09:26:56;97229.03;;;12.99;100.00
57628;BME280;43451;49.060;10.616;2023-05-08T09:29:22;97238.00;;;12.96;100.00
57628;BME280;43451;49.060;10.616;2023-05-08T09:31:48;97235.28;;;13.04;100.00
57628;BME280;43451;49.060;10.616;2023-05-08T09:34:26;97236.44;;;13.02;100.00
57628;BME280;43451;49.060;10.616;2023-05-08T09:36:52;97236.84;;;12.97;100.00
57628;BME280;43451;49.060;10.616;2023-05-08T09:39:22;97239.56;;;13.05;100.00
57628;BME280;43451;49.060;10.616;2023-05-08T09:41:58;97236.44;;;13.02;100.00
57628;BME280;43451;49.060;10.616;2023-05-08T09:44:24;97243.81;;;13.06;100.00
57628;BME280;43451;49.060;10.616;2023-05-08T09:46:50;97243.38;;;13.21;100.00
57628;BME280;43451;49.060;10.616;2023-05-08T09:49:16;97242.59;;;13.21;100.00
57628;BME280;43451;49.060;10.616;2023-05-08T09:51:51;97245.75;;;13.19;100.00
57628;BME280;43451;49.060;10.616;2023-05-08T09:54:19;97249.22;;;13.23;100.00
57628;BME280;43451;49.060;10.616;2023-05-08T09:56:45;97250.44;;;13.12;100.00
57628;BME280;43451;49.060;10.616;2023-05-08T09:59:26;97247.31;;;13.17;100.00
57628;BME280;43451;49.060;10.616;2023-05-08T10:01:53;97257.03;;;13.25;100.00
57628;BME280;43451;49.060;10.616;2023-05-08T10:04:33;97253.91;;;13.16;100.00
57628;BME280;43451;49.060;10.616;2023-05-08T10:06:58;97255.88;;;13.26;100.00
57628;BME280;43451;49.060;10.616;2023-05-08T10:09:24;97258.19;;;13.38;100.00
57628;BME280;43451;49.060;10.616;2023-05-08T10:11:50;97258.19;;;13.31;100.00
57628;BME280;43451;49.060;10.616;2023-05-08T10:14:17;97255.84;;;13.33;100.00
57628;BME280;43451;49.060;10.616;2023-05-08T10:16:43;97257.38;;;13.38;100.00
57628;BME280;43451;49.060;10.616;2023-05-08T10:19:14;97255.78;;;13.47;100.00
57628;BME280;43451;49.060;10.616;2023-05-08T10:21:40;97259.31;;;13.41;100.00
57628;BME280;43451;49.060;10.616;2023-05-08T10:24:12;97255.03;;;13.40;100.00
57628;BME280;43451;49.060;10.616;2023-05-08T10:26:37;97262.03;;;13.48;100.00
57628;BME280;43451;49.060;10.616;2023-05-08T10:29:07;97249.81;;;13.70;100.00
57628;BME280;43451;49.060;10.616;2023-05-08T10:31:35;97252.63;;;13.56;100.00
57628;BME280;43451;49.060;10.616;2023-05-08T10:34:05;97252.63;;;13.53;100.00
57628;BME280;43451;49.060;10.616;2023-05-08T10:36:30;97256.09;;;13.64;100.00
57628;BME280;43451;49.060;10.616;2023-05-08T10:38:57;97255.72;;;13.62;100.00
57628;BME280;43451;49.060;10.616;2023-05-08T10:41:23;97254.91;;;13.68;100.00
57628;BME280;43451;49.060;10.616;2023-05-08T10:43:48;97259.63;;;13.61;100.00
57628;BME280;43451;49.060;10.616;2023-05-08T10:46:36;97259.16;;;13.73;100.00
57628;BME280;43451;49.060;10.616;2023-05-08T10:51:34;97254.75;;;13.93;100.00
57628;BME280;43451;49.060;10.616;2023-05-08T10:54:12;97250.88;;;13.87;100.00
57628;BME280;43451;49.060;10.616;2023-05-08T10:56:43;97256.28;;;13.94;100.00
57628;BME280;43451;49.060;10.616;2023-05-08T10:59:16;97259.84;;;13.88;100.00
57628;BME280;43451;49.060;10.616;2023-05-08T11:01:41;97252.47;;;13.81;100.00
57628;BME280;43451;49.060;10.616;2023-05-08T11:04:28;97263.34;;;13.88;100.00
57628;BME280;43451;49.060;10.616;2023-05-08T11:06:53;97250.06;;;13.94;100.00
57628;BME280;43451;49.060;10.616;2023-05-08T11:09:19;97257.06;;;13.99;100.00
57628;BME280;43451;49.060;10.616;2023-05-08T11:11:49;97246.88;;;14.03;100.00
57628;BME280;43451;49.060;10.616;2023-05-08T11:14:16;97241.38;;;14.10;100.00
57628;BME280;43451;49.060;10.616;2023-05-08T11:19:24;97240.94;;;14.15;100.00
57628;BME280;43451;49.060;10.616;2023-05-08T11:24:34;97242.22;;;14.00;100.00
57628;BME280;43451;49.060;10.616;2023-05-08T11:27:02;97243.72;;;14.11;100.00
57628;BME280;43451;49.060;10.616;2023-05-08T11:29:28;97244.53;;;14.01;100.00
57628;BME280;43451;49.060;10.616;2023-05-08T11:31:53;97244.94;;;14.03;100.00
57628;BME280;43451;49.060;10.616;2023-05-08T11:37:00;97238.28;;;14.04;100.00
57628;BME280;43451;49.060;10.616;2023-05-08T11:39:26;97240.22;;;14.07;100.00
57628;BME280;43451;49.060;10.616;2023-05-08T11:41:51;97238.63;;;14.10;100.00
57628;BME280;43451;49.060;10.616;2023-05-08T11:44:19;97229.75;;;13.99;100.00
57628;BME280;43451;49.060;10.616;2023-05-08T11:46:50;97241.41;;;14.06;100.00
57628;BME280;43451;49.060;10.616;2023-05-08T11:49:16;97239.81;;;14.09;100.00
57628;BME280;43451;49.060;10.616;2023-05-08T11:51:47;97238.97;;;14.19;100.00
57628;BME280;43451;49.060;10.616;2023-05-08T11:54:16;97241.31;;;14.17;100.00
57628;BME280;43451;49.060;10.616;2023-05-08T11:56:44;97232.63;;;14.29;100.00
57628;BME280;43451;49.060;10.616;2023-05-08T11:59:09;97238.72;;;14.48;100.00
57628;BME280;43451;49.060;10.616;2023-05-08T12:01:35;97237.94;;;14.51;100.00
57628;BME280;43451;49.060;10.616;2023-05-08T12:04:11;97236.75;;;14.48;100.00
57628;BME280;43451;49.060;10.616;2023-05-08T12:06:37;97246.19;;;14.44;100.00
57628;BME280;43451;49.060;10.616;2023-05-08T12:09:04;97230.94;;;14.43;100.00
57628;BME280;43451;49.060;10.616;2023-05-08T12:11:33;97238.28;;;14.56;100.00
57628;BME280;43451;49.060;10.616;2023-05-08T12:13:59;97237.13;;;14.54;100.00
57628;BME280;43451;49.060;10.616;2023-05-08T12:16:24;97241.06;;;14.53;100.00
57628;BME280;43451;49.060;10.616;2023-05-08T12:18:50;97238.19;;;14.67;100.00
57628;BME280;43451;49.060;10.616;2023-05-08T12:21:16;97238.59;;;14.66;100.00
57628;BME280;43451;49.060;10.616;2023-05-08T12:23:41;97234.03;;;14.52;100.00
57628;BME280;43451;49.060;10.616;2023-05-08T12:26:07;97235.69;;;14.38;100.00
57628;BME280;43451;49.060;10.616;2023-05-08T12:28:32;97234.19;;;14.30;100.00
57628;BME280;43451;49.060;10.616;2023-05-08T12:30:58;97236.13;;;14.30;100.00
57628;BME280;43451;49.060;10.616;2023-05-08T12:33:23;97234.56;;;14.32;100.00
57628;BME280;43451;49.060;10.616;2023-05-08T12:35:49;97232.13;;;14.42;100.00
57628;BME280;43451;49.060;10.616;2023-05-08T12:38:15;97235.59;;;14.46;100.00
57628;BME280;43451;49.060;10.616;2023-05-08T12:40:41;97242.22;;;14.52;100.00
57628;BME280;43451;49.060;10.616;2023-05-08T12:43:07;97237.94;;;14.47;100.00
57628;BME280;43451;49.060;10.616;2023-05-08T12:45:33;97235.63;;;14.42;100.00
57628;BME280;43451;49.060;10.616;2023-05-08T12:48:05;97237.53;;;14.49;100.00
57628;BME280;43451;49.060;10.616;2023-05-08T12:50:34;97237.53;;;14.52;100.00
57628;BME280;43451;49.060;10.616;2023-05-08T12:53:04;97237.53;;;14.49;100.00
57628;BME280;43451;49.060;10.616;2023-05-08T12:55:30;97248.03;;;14.57;100.00
57628;BME280;43451;49.060;10.616;2023-05-08T12:58:03;97245.56;;;14.70;100.00
57628;BME280;43451;49.060;10.616;2023-05-08T13:00:35;97240.22;;;14.59;100.00
57628;BME280;43451;49.060;10.616;2023-05-08T13:03:01;97231.66;;;14.54;100.00
57628;BME280;43451;49.060;10.616;2023-05-08T13:05:27;97237.13;;;14.54;100.00
57628;BME280;43451;49.060;10.616;2023-05-08T13:07:58;97228.56;;;14.48;100.00
57628;BME280;43451;49.060;10.616;2023-05-08T13:10:24;97230.13;;;14.53;100.00
57628;BME280;43451;49.060;10.616;2023-05-08T13:12:50;97229.97;;;14.67;100.00